Time;durP1;ratioP1;P1;durP2;ratioP2;P2;SDS_P1;SDS_P2;PMS_P1;PMS_P2;Temp;Humidity;BMP_temperature;BMP_pressure;BME280_temperature;BME280_humidity;BME280_pressure;Samples;Min_cycle;Max_cycle;Signal;HPM_P1;HPM_P2
2023/09/28 00:03:01;;;;;;;1.30;1.30;;;;;;;15.54;70.95;97188.66;4891779;29;20068;-64
2023/09/28 00:05:28;;;;;;;1.20;1.20;;;;;;;15.11;71.44;97157.09;4881094;29;20607;-66
2023/09/28 00:07:57;;;;;;;1.30;1.30;;;;;;;15.42;71.57;97189.06;4872718;29;20656;-65
2023/09/28 00:10:24;;;;;;;1.20;1.20;;;;;;;15.49;70.98;97177.88;4872402;29;20053;-65
2023/09/28 00:12:53;;;;;;;1.30;1.30;;;;;;;15.43;71.36;97196.22;4855946;29;20068;-66
2023/09/28 00:15:21;;;;;;;1.40;1.40;;;;;;;15.41;71.44;97187.47;4872314;29;20564;-65
2023/09/28 00:17:48;;;;;;;1.13;1.13;;;;;;;14.64;72.59;97114.78;4855953;29;20064;-65
2023/09/28 00:20:20;;;;;;;1.20;1.20;;;;;;;15.13;72.73;97176.22;4872377;29;20445;-65
2023/09/28 00:22:49;;;;;;;1.25;1.25;;;;;;;14.48;72.91;97089.28;4872463;29;20057;-65
2023/09/28 00:25:16;;;;;;;1.20;1.20;;;;;;;15.08;72.97;97168.25;4872322;29;20361;-65
2023/09/28 00:27:45;;;;;;;1.27;1.27;;;;;;;15.10;72.98;97166.66;4872232;29;20065;-65
2023/09/28 00:30:13;;;;;;;1.30;1.30;;;;;;;15.05;73.15;97169.03;4872008;29;20067;-65
2023/09/28 00:32:43;;;;;;;1.30;1.30;;;;;;;15.07;73.27;97167.47;4872182;29;20547;-65
2023/09/28 00:35:10;;;;;;;1.30;1.30;;;;;;;14.96;73.16;97144.34;4869603;29;20065;-66
2023/09/28 00:37:37;;;;;;;1.20;1.20;;;;;;;15.07;73.36;97163.88;4872646;29;20081;-65
2023/09/28 00:40:16;;;;;;;1.30;1.30;;;;;;;14.98;73.77;97155.88;4855455;29;20113;-66
2023/09/28 00:42:44;;;;;;;1.20;1.20;;;;;;;14.72;73.80;97116.38;4870821;29;20336;-65
2023/09/28 00:45:10;;;;;;;1.10;1.10;;;;;;;15.00;74.19;97158.28;4872053;29;20488;-65
2023/09/28 00:47:38;;;;;;;1.20;1.20;;;;;;;15.06;74.01;97156.69;4872285;29;20091;-65
2023/09/28 00:50:15;;;;;;;1.20;1.20;;;;;;;15.24;73.35;97149.13;4872040;29;20057;-65
2023/09/28 00:52:43;;;;;;;1.20;1.20;;;;;;;15.34;72.96;97153.94;4871763;29;20501;-65
2023/09/28 00:55:13;;;;;;;1.35;1.35;;;;;;;15.33;73.10;97163.50;4871754;29;20153;-66
2023/09/28 00:57:41;;;;;;;1.30;1.30;;;;;;;14.67;73.27;97058.22;4855247;29;20057;-65
2023/09/28 01:02:55;;;;;;;1.30;1.30;;;;;;;15.48;73.10;97147.56;4853279;29;20087;-66
2023/09/28 01:05:30;;;;;;;1.40;1.40;;;;;;;15.52;73.00;97149.19;4870641;29;20104;-65
2023/09/28 01:08:15;;;;;;;1.30;1.30;;;;;;;14.97;73.48;97067.00;4873835;29;20056;-65
2023/09/28 01:10:42;;;;;;;1.38;1.38;;;;;;;15.00;73.68;97066.22;4890236;29;20060;-65
2023/09/28 01:13:15;;;;;;;1.35;1.35;;;;;;;15.38;74.57;97149.16;4890657;29;20528;-65
2023/09/28 01:15:46;;;;;;;1.25;1.25;;;;;;;15.03;74.39;97073.81;4888400;29;20056;-65
2023/09/28 01:18:15;;;;;;;1.33;1.33;;;;;;;15.56;74.25;97136.00;4890429;29;20060;-65
2023/09/28 01:20:47;;;;;;;1.52;1.52;;;;;;;15.64;73.99;97126.41;4889662;29;20094;-66
2023/09/28 01:23:13;;;;;;;1.60;1.60;;;;;;;15.70;73.80;97133.19;4890064;29;20075;-65
2023/09/28 01:25:43;;;;;;;1.40;1.40;;;;;;;15.49;73.24;97119.25;4889747;29;20079;-66
2023/09/28 01:28:10;;;;;;;1.33;1.33;;;;;;;15.10;73.28;97048.69;4890170;29;20171;-65
2023/09/28 01:30:37;;;;;;;1.52;1.52;;;;;;;15.48;73.67;97134.41;4888229;29;20068;-66
2023/09/28 01:33:04;;;;;;;1.33;1.33;;;;;;;15.01;73.30;97073.41;4889690;29;20144;-65
2023/09/28 01:35:31;;;;;;;1.30;1.30;;;;;;;15.44;73.58;97147.59;4889734;29;20068;-65
2023/09/28 01:38:13;;;;;;;1.30;1.30;;;;;;;15.49;73.64;97138.78;4889468;29;20455;-66
2023/09/28 01:40:42;;;;;;;1.23;1.23;;;;;;;15.51;73.88;97135.59;4887622;29;20056;-66
2023/09/28 01:43:09;;;;;;;1.30;1.30;;;;;;;15.29;74.47;97129.19;4889963;29;20056;-65
2023/09/28 01:45:36;;;;;;;1.40;1.40;;;;;;;15.38;74.83;97138.00;4872577;29;20187;-65
2023/09/28 01:48:03;;;;;;;1.40;1.40;;;;;;;14.98;75.50;97085.34;4889791;29;20154;-65
2023/09/28 01:50:31;;;;;;;1.20;1.20;;;;;;;15.26;75.88;97137.56;4872547;29;20410;-64
2023/09/28 01:52:58;;;;;;;1.45;1.45;;;;;;;15.25;76.59;97139.56;4889580;29;20063;-65
2023/09/28 01:55:25;;;;;;;1.40;1.40;;;;;;;15.37;76.14;97133.59;4889615;29;20056;-64
2023/09/28 01:57:51;;;;;;;1.30;1.30;;;;;;;15.35;76.37;97138.75;4889457;29;20060;-65
2023/09/28 02:00:20;;;;;;;1.23;1.23;;;;;;;15.15;75.73;97101.28;4889499;29;20057;-65
2023/09/28 02:02:48;;;;;;;1.42;1.42;;;;;;;15.58;75.37;97142.00;4889489;29;20064;-64
2023/09/28 02:05:19;;;;;;;1.20;1.20;;;;;;;15.53;75.45;97139.59;4881629;29;20544;-65
2023/09/28 02:07:46;;;;;;;1.23;1.23;;;;;;;15.41;76.15;97148.38;4870821;29;20067;-65
2023/09/28 02:10:14;;;;;;;1.20;1.20;;;;;;;15.35;76.35;97130.38;4870038;29;20432;-65
2023/09/28 02:12:45;;;;;;;1.40;1.40;;;;;;;14.80;76.25;97046.28;4869313;29;20068;-65
2023/09/28 02:15:16;;;;;;;1.27;1.27;;;;;;;15.39;76.58;97134.03;4870150;29;20211;-65
2023/09/28 02:17:44;;;;;;;1.38;1.38;;;;;;;15.44;76.53;97136.41;4870168;29;20061;-65
2023/09/28 02:20:16;;;;;;;1.40;1.40;;;;;;;15.40;76.62;97130.03;4854111;29;20064;-65
2023/09/28 02:22:44;;;;;;;1.30;1.30;;;;;;;15.32;76.36;97133.19;4870197;29;20072;-66
2023/09/28 02:25:18;;;;;;;1.33;1.33;;;;;;;15.26;76.70;97135.59;4870559;29;20116;-65
2023/09/28 02:27:46;;;;;;;1.10;1.10;;;;;;;15.11;77.27;97142.38;4870714;29;20052;-66
2023/09/28 02:30:17;;;;;;;1.20;1.20;;;;;;;15.17;76.91;97138.75;4869979;29;20068;-66
2023/09/28 02:32:45;;;;;;;1.25;1.25;;;;;;;15.16;76.67;97139.16;4870537;29;20084;-65
2023/09/28 02:35:16;;;;;;;1.30;1.30;;;;;;;14.84;77.28;97088.13;4870813;29;20215;-65
2023/09/28 02:37:45;;;;;;;1.40;1.40;;;;;;;15.28;77.61;97137.97;4870540;29;20117;-64
2023/09/28 02:40:13;;;;;;;1.30;1.30;;;;;;;15.29;77.49;97145.94;4870326;29;20065;-66
2023/09/28 02:42:41;;;;;;;1.20;1.20;;;;;;;15.38;77.90;97143.56;4870512;29;20092;-66
2023/09/28 02:45:12;;;;;;;1.20;1.20;;;;;;;14.81;77.81;97044.31;4870368;29;20067;-66
2023/09/28 02:47:41;;;;;;;1.33;1.33;;;;;;;15.53;77.39;97149.97;4870383;29;20500;-65
2023/09/28 02:50:09;;;;;;;1.30;1.30;;;;;;;14.90;77.18;97050.28;4869808;29;20449;-65
2023/09/28 02:52:46;;;;;;;1.23;1.23;;;;;;;15.57;77.51;97159.91;4853259;29;20171;-65
2023/09/28 02:55:14;;;;;;;1.30;1.30;;;;;;;15.65;77.37;97161.50;4868477;29;20068;-65
2023/09/28 02:57:41;;;;;;;1.55;1.55;;;;;;;15.51;76.99;97107.66;4870229;29;20087;-65
2023/09/28 03:00:30;;;;;;;1.45;1.45;;;;;;;15.92;76.32;97150.69;4870203;29;20057;-66
2023/09/28 03:02:57;;;;;;;1.45;1.45;;;;;;;15.79;75.44;97111.22;4870536;29;20124;-65
2023/09/28 03:05:26;;;;;;;1.48;1.48;;;;;;;16.19;75.29;97169.41;4869714;29;20474;-65
2023/09/28 03:07:52;;;;;;;1.40;1.40;;;;;;;16.16;75.18;97164.63;4853473;29;20091;-65
2023/09/28 03:10:19;;;;;;;1.23;1.23;;;;;;;15.54;75.41;97057.41;4869795;29;20061;-65
2023/09/28 03:12:47;;;;;;;1.38;1.38;;;;;;;16.17;75.73;97162.63;4853604;29;20065;-65
2023/09/28 03:15:16;;;;;;;1.63;1.63;;;;;;;16.34;75.57;97156.94;4869828;29;20068;-65
2023/09/28 03:17:43;;;;;;;1.52;1.52;;;;;;;15.98;74.85;97091.22;4853545;29;20053;-65
2023/09/28 03:20:13;;;;;;;1.60;1.60;;;;;;;16.53;74.48;97159.31;4870015;29;20057;-65
2023/09/28 03:22:42;;;;;;;1.40;1.40;;;;;;;16.50;74.76;97154.53;4871167;29;20067;-66
2023/09/28 03:25:12;;;;;;;1.50;1.50;;;;;;;16.11;75.20;97102.72;4873057;29;20073;-65
2023/09/28 03:27:39;;;;;;;1.65;1.65;;;;;;;16.32;74.92;97114.66;4873230;29;20059;-65
2023/09/28 03:30:10;;;;;;;1.50;1.50;;;;;;;16.70;74.70;97163.25;4856851;29;20484;-66
2023/09/28 03:32:38;;;;;;;1.50;1.50;;;;;;;16.80;73.74;97154.00;4873625;29;20059;-65
2023/09/28 03:35:10;;;;;;;1.50;1.50;;;;;;;16.82;74.18;97164.78;4856548;29;20065;-64
2023/09/28 03:37:37;;;;;;;1.65;1.65;;;;;;;16.91;73.12;97162.31;4860607;29;20118;-65
2023/09/28 03:40:10;;;;;;;1.50;1.50;;;;;;;17.01;72.74;97172.66;4873623;29;20053;-65
2023/09/28 03:42:42;;;;;;;1.50;1.50;;;;;;;17.11;72.53;97171.78;4873181;29;20580;-65
2023/09/28 03:45:11;;;;;;;1.50;1.50;;;;;;;17.11;72.02;97160.59;4873214;29;20530;-65
2023/09/28 03:47:40;;;;;;;1.70;1.70;;;;;;;17.12;71.39;97179.00;4873023;29;20057;-66
2023/09/28 03:50:12;;;;;;;1.60;1.60;;;;;;;17.12;71.11;97179.78;4873004;29;20132;-67
2023/09/28 03:52:40;;;;;;;1.45;1.45;;;;;;;17.01;71.43;97183.88;4873013;29;20065;-65
2023/09/28 03:55:12;;;;;;;1.60;1.60;;;;;;;16.87;71.86;97178.31;4872393;29;20541;-66
2023/09/28 03:57:42;;;;;;;1.42;1.42;;;;;;;16.50;72.47;97134.16;4872628;29;20088;-66
2023/09/28 04:00:14;;;;;;;1.50;1.50;;;;;;;16.82;72.40;97181.56;4872945;29;20064;-65
2023/09/28 04:02:42;;;;;;;1.48;1.48;;;;;;;16.16;73.27;97102.31;4871610;29;20441;-65
2023/09/28 04:05:09;;;;;;;1.60;1.60;;;;;;;16.76;73.05;97188.78;4872317;29;20060;-65
2023/09/28 04:07:37;;;;;;;1.52;1.52;;;;;;;16.80;72.86;97189.56;4855625;29;20065;-66
2023/09/28 04:10:04;;;;;;;1.60;1.60;;;;;;;16.57;72.97;97143.31;4871235;29;20061;-66
2023/09/28 04:12:30;;;;;;;1.50;1.50;;;;;;;16.33;72.22;97099.47;4870987;29;20053;-66
2023/09/28 04:14:57;;;;;;;1.50;1.50;;;;;;;16.88;71.90;97179.94;4872728;29;20061;-66
2023/09/28 04:17:24;;;;;;;1.60;1.60;;;;;;;16.53;72.23;97141.75;4872133;29;20055;-66
2023/09/28 04:19:52;;;;;;;1.42;1.42;;;;;;;16.31;72.17;97115.84;4872285;29;20144;-65
2023/09/28 04:22:19;;;;;;;1.50;1.50;;;;;;;16.76;72.04;97213.94;4872396;29;20065;-64
2023/09/28 04:24:45;;;;;;;1.50;1.50;;;;;;;16.71;72.11;97208.81;4872230;29;20065;-65
2023/09/28 04:27:12;;;;;;;1.52;1.52;;;;;;;16.72;72.00;97204.78;4872398;29;20068;-65
2023/09/28 04:29:40;;;;;;;1.48;1.48;;;;;;;15.95;71.81;97178.63;4855330;29;20073;-66
2023/09/28 04:32:06;;;;;;;1.60;1.60;;;;;;;16.72;71.86;97202.81;4870816;29;20071;-65
2023/09/28 04:34:33;;;;;;;1.48;1.48;;;;;;;16.49;71.79;97188.50;4871406;29;20060;-65
2023/09/28 04:37:02;;;;;;;1.50;1.50;;;;;;;16.41;72.05;97168.13;4862051;29;20148;-65
2023/09/28 04:39:29;;;;;;;1.60;1.60;;;;;;;16.64;71.91;97204.81;4870647;29;20576;-66
2023/09/28 04:41:58;;;;;;;1.70;1.70;;;;;;;16.67;71.85;97214.41;4871572;29;20140;-65
2023/09/28 04:44:25;;;;;;;1.40;1.40;;;;;;;16.58;72.24;97217.63;4872003;29;20065;-65
2023/09/28 04:46:51;;;;;;;1.60;1.60;;;;;;;16.56;72.23;97213.66;4871432;29;20185;-66
2023/09/28 04:49:18;;;;;;;1.48;1.48;;;;;;;16.70;71.95;97212.78;4870614;29;20060;-66
2023/09/28 04:51:45;;;;;;;1.60;1.60;;;;;;;16.74;71.86;97213.56;4872189;29;20152;-64
2023/09/28 04:54:12;;;;;;;1.55;1.55;;;;;;;16.69;72.19;97222.38;4854750;29;20474;-61
2023/09/28 04:56:40;;;;;;;1.70;1.70;;;;;;;16.80;71.89;97217.53;4872054;29;20053;-60
2023/09/28 04:59:08;;;;;;;1.60;1.60;;;;;;;16.82;71.99;97203.94;4870262;29;20166;-63
2023/09/28 05:01:35;;;;;;;1.52;1.52;;;;;;;16.98;71.62;97229.44;4870164;29;20543;-64
2023/09/28 05:04:03;;;;;;;1.60;1.60;;;;;;;17.07;71.29;97227.78;4870896;29;20299;-63
2023/09/28 05:06:30;;;;;;;1.60;1.60;;;;;;;17.08;71.42;97220.19;4847372;29;20063;-63
2023/09/28 05:08:56;;;;;;;1.50;1.50;;;;;;;17.13;71.32;97228.16;4872031;29;20053;-64
2023/09/28 05:11:23;;;;;;;1.50;1.50;;;;;;;17.16;71.32;97224.56;4871504;29;20506;-63
2023/09/28 05:13:51;;;;;;;1.50;1.50;;;;;;;17.16;71.47;97224.56;4870326;29;20121;-64
2023/09/28 05:16:19;;;;;;;1.60;1.60;;;;;;;17.15;71.56;97220.16;4871097;29;20147;-64
2023/09/28 05:18:46;;;;;;;1.60;1.60;;;;;;;17.18;71.23;97211.72;4854046;29;20452;-63
2023/09/28 05:21:13;;;;;;;1.67;1.67;;;;;;;17.30;70.99;97225.25;4853997;29;20615;-64
2023/09/28 05:23:42;;;;;;;1.60;1.60;;;;;;;17.24;71.47;97231.69;4855446;29;20053;-64
2023/09/28 05:26:09;;;;;;;1.70;1.70;;;;;;;17.38;70.95;97232.41;4870462;29;20260;-63
2023/09/28 05:28:36;;;;;;;1.65;1.65;;;;;;;17.48;70.88;97236.38;4871167;29;20080;-63
2023/09/28 05:31:03;;;;;;;1.67;1.67;;;;;;;17.63;70.41;97235.06;4870650;29;20061;-63
2023/09/28 05:33:31;;;;;;;1.85;1.85;;;;;;;17.60;70.82;97241.50;4871814;29;20079;-64
2023/09/28 05:35:58;;;;;;;2.08;2.08;;;;;;;17.92;70.44;97253.25;4870862;29;20064;-63
2023/09/28 05:38:24;;;;;;;1.75;1.75;;;;;;;18.10;68.92;97240.66;4854616;29;20056;-63
2023/09/28 05:40:51;;;;;;;1.70;1.70;;;;;;;18.26;68.85;97248.53;4870867;29;20061;-63
2023/09/28 05:43:18;;;;;;;1.83;1.83;;;;;;;18.42;68.29;97246.00;4871385;29;20057;-64
2023/09/28 05:45:44;;;;;;;1.90;1.90;;;;;;;18.57;67.74;97253.06;4868407;29;20492;-64
2023/09/28 05:48:11;;;;;;;1.60;1.60;;;;;;;18.76;67.08;97246.78;4870857;29;20497;-65
2023/09/28 05:50:38;;;;;;;1.80;1.80;;;;;;;18.25;66.75;97174.03;4871058;29;20124;-73
2023/09/28 05:53:04;;;;;;;1.80;1.80;;;;;;;18.95;66.81;97251.78;4852718;29;20075;-67
2023/09/28 05:55:31;;;;;;;1.60;1.60;;;;;;;19.14;66.32;97248.31;4850285;29;20141;-62
2023/09/28 05:57:58;;;;;;;1.73;1.73;;;;;;;19.40;65.41;97249.59;4852017;29;20061;-63
2023/09/28 06:00:25;;;;;;;1.90;1.90;;;;;;;19.62;64.99;97250.13;4827030;29;20534;-63
2023/09/28 06:02:52;;;;;;;1.90;1.90;;;;;;;19.16;64.96;97195.34;4847927;29;20533;-61
2023/09/28 06:05:18;;;;;;;1.70;1.70;;;;;;;19.35;63.74;97163.78;4846133;29;20065;-70
2023/09/28 06:07:45;;;;;;;1.95;1.95;;;;;;;20.17;63.49;97233.56;4842147;29;20244;-69
2023/09/28 06:10:13;;;;;;;1.75;1.75;;;;;;;18.32;63.32;96921.50;4843834;29;20066;-61
2023/09/28 06:12:39;;;;;;;2.00;2.00;;;;;;;20.61;62.34;97227.50;4826044;29;20083;-65
2023/09/28 06:15:08;;;;;;;1.98;1.98;;;;;;;20.66;61.93;97201.69;4848148;29;20108;-66
2023/09/28 06:17:35;;;;;;;2.08;2.08;;;;;;;20.58;60.98;97150.34;4847387;29;20066;-63
